createdAt,value
2022-12-31T00:01:22.531Z,90.31
2022-12-31T00:04:25.193Z,89.34
2022-12-31T00:07:29.952Z,89.20
2022-12-31T00:10:39.958Z,89.35
2022-12-31T00:13:43.273Z,90.24
2022-12-31T00:16:46.550Z,90.73
2022-12-31T00:20:08.567Z,90.23
2022-12-31T00:23:13.072Z,89.67
2022-12-31T00:26:17.532Z,88.91
2022-12-31T00:29:20.196Z,89.49
2022-12-31T00:32:22.924Z,89.21
2022-12-31T00:35:27.000Z,89.10
2022-12-31T00:38:31.060Z,89.22
2022-12-31T00:41:34.155Z,89.75
2022-12-31T00:44:36.815Z,89.25
2022-12-31T00:47:39.470Z,88.20
2022-12-31T00:50:44.960Z,88.27
2022-12-31T00:53:49.055Z,88.15
2022-12-31T00:56:51.838Z,87.58
2022-12-31T00:59:54.521Z,88.23
2022-12-31T01:02:57.266Z,88.54
2022-12-31T01:06:01.386Z,89.29
2022-12-31T01:09:06.163Z,88.24
2022-12-31T01:12:08.971Z,88.03
2022-12-31T01:15:11.721Z,87.38
2022-12-31T01:18:14.434Z,87.83
2022-12-31T01:21:18.394Z,86.99
2022-12-31T01:24:22.536Z,87.99
2022-12-31T01:27:25.125Z,87.61
2022-12-31T01:30:27.802Z,87.51
2022-12-31T01:33:30.429Z,87.40
2022-12-31T01:36:35.175Z,87.94
2022-12-31T01:39:39.403Z,86.52
2022-12-31T01:42:42.111Z,87.07
2022-12-31T01:45:47.070Z,87.77
2022-12-31T01:48:52.843Z,87.72
2022-12-31T01:51:58.767Z,87.52
2022-12-31T01:55:07.829Z,86.56
2022-12-31T01:58:14.090Z,86.25
2022-12-31T02:01:24.164Z,86.67
2022-12-31T02:04:28.938Z,86.34
2022-12-31T02:07:34.514Z,86.09
2022-12-31T02:10:38.742Z,86.95
2022-12-31T02:13:41.455Z,87.17
2022-12-31T02:16:53.145Z,86.79
2022-12-31T02:20:46.581Z,86.91
2022-12-31T02:24:16.798Z,87.46
2022-12-31T02:27:33.867Z,87.23
2022-12-31T02:30:39.380Z,87.29
2022-12-31T02:33:50.952Z,86.67
2022-12-31T02:36:55.293Z,87.23
2022-12-31T02:39:58.881Z,87.07
2022-12-31T02:43:01.562Z,87.47
2022-12-31T02:46:13.587Z,87.04
2022-12-31T02:49:23.337Z,87.37
2022-12-31T02:52:34.282Z,87.56
2022-12-31T02:55:48.887Z,87.99
2022-12-31T02:59:20.235Z,87.54
2022-12-31T03:02:28.239Z,88.49
2022-12-31T03:05:34.407Z,88.58
2022-12-31T03:08:57.007Z,89.45
2022-12-31T03:12:19.478Z,89.54
2022-12-31T03:15:23.833Z,89.13
2022-12-31T03:18:46.549Z,89.62
2022-12-31T03:22:07.489Z,89.32
2022-12-31T03:25:30.455Z,89.25
2022-12-31T03:28:33.250Z,88.59
2022-12-31T03:31:35.870Z,88.94
2022-12-31T03:34:39.942Z,89.28
2022-12-31T03:37:43.411Z,88.64
2022-12-31T03:40:48.400Z,88.69
2022-12-31T03:43:51.079Z,88.44
2022-12-31T03:46:53.674Z,88.54
2022-12-31T03:49:58.312Z,88.40
2022-12-31T03:53:01.047Z,87.94
2022-12-31T03:56:03.961Z,88.09
2022-12-31T03:59:09.472Z,87.94
2022-12-31T04:02:12.207Z,88.32
2022-12-31T04:05:17.565Z,87.99
2022-12-31T04:08:20.249Z,87.81
2022-12-31T04:11:23.021Z,87.32
2022-12-31T04:14:25.660Z,87.54
2022-12-31T04:17:28.482Z,87.70
2022-12-31T04:20:32.922Z,87.51
2022-12-31T04:23:35.606Z,87.06
2022-12-31T04:26:38.727Z,87.43
2022-12-31T04:29:41.511Z,87.17
2022-12-31T04:32:45.307Z,87.22
2022-12-31T04:35:49.305Z,87.55
2022-12-31T04:38:52.047Z,87.29
2022-12-31T04:41:55.175Z,87.36
2022-12-31T04:44:57.788Z,88.08
2022-12-31T04:48:00.428Z,87.82
2022-12-31T04:51:06.398Z,87.72
2022-12-31T04:54:09.447Z,87.86
2022-12-31T04:57:12.156Z,88.19
2022-12-31T05:00:16.154Z,88.73
2022-12-31T05:03:19.223Z,88.75
2022-12-31T05:06:23.834Z,89.31
2022-12-31T05:09:28.301Z,89.21
2022-12-31T05:12:31.097Z,88.89
2022-12-31T05:15:33.961Z,88.85
2022-12-31T05:18:37.039Z,88.13
2022-12-31T05:21:41.057Z,88.53
2022-12-31T05:24:43.717Z,87.75
2022-12-31T05:27:46.362Z,87.69
2022-12-31T05:30:50.830Z,87.31
2022-12-31T05:33:53.784Z,87.76
2022-12-31T05:36:57.785Z,87.32
2022-12-31T05:40:00.443Z,87.68
2022-12-31T05:43:03.040Z,87.75
2022-12-31T05:46:05.776Z,87.75
2022-12-31T05:49:08.577Z,88.30
2022-12-31T05:52:15.916Z,87.67
2022-12-31T05:55:18.885Z,87.30
2022-12-31T05:58:21.538Z,86.64
2022-12-31T06:01:24.428Z,86.60
2022-12-31T06:04:27.390Z,86.45
2022-12-31T06:07:31.886Z,86.33
2022-12-31T06:10:34.573Z,86.51
2022-12-31T06:13:37.264Z,86.90
2022-12-31T06:16:41.346Z,86.99
2022-12-31T06:19:44.066Z,87.19
2022-12-31T06:22:48.079Z,87.37
2022-12-31T06:25:53.904Z,86.50
2022-12-31T06:28:56.497Z,86.26
2022-12-31T06:31:59.198Z,86.02
2022-12-31T06:35:01.849Z,85.98
2022-12-31T06:38:05.965Z,85.15
2022-12-31T06:41:12.748Z,85.01
2022-12-31T06:44:15.641Z,85.59
2022-12-31T06:47:18.287Z,85.37
2022-12-31T06:50:21.269Z,84.71
2022-12-31T06:53:25.264Z,84.92
2022-12-31T06:56:34.340Z,84.16
2022-12-31T06:59:38.021Z,84.19
2022-12-31T07:03:01.690Z,83.78
2022-12-31T07:06:12.662Z,84.01
2022-12-31T07:09:26.726Z,83.73
2022-12-31T07:12:39.236Z,83.04
2022-12-31T07:16:02.827Z,82.84
2022-12-31T07:19:17.515Z,82.13
2022-12-31T07:22:20.875Z,82.17
2022-12-31T07:25:25.660Z,81.33
2022-12-31T07:28:41.959Z,79.65
2022-12-31T07:31:59.282Z,76.71
2022-12-31T07:35:09.717Z,73.69
2022-12-31T07:38:23.111Z,72.74
2022-12-31T07:41:43.373Z,71.19
2022-12-31T07:44:57.576Z,69.71
2022-12-31T07:48:24.179Z,70.42
2022-12-31T07:51:27.878Z,72.41
2022-12-31T07:54:30.687Z,74.94
2022-12-31T07:57:41.136Z,75.37
2022-12-31T08:00:44.253Z,76.40
2022-12-31T08:03:57.751Z,76.00
2022-12-31T08:07:11.383Z,76.26
2022-12-31T08:10:20.939Z,76.06
2022-12-31T08:13:25.748Z,75.28
2022-12-31T08:16:29.330Z,73.62
2022-12-31T08:19:33.049Z,71.14
2022-12-31T08:22:56.148Z,69.79
2022-12-31T08:26:18.796Z,69.87
2022-12-31T08:29:34.523Z,70.87
2022-12-31T08:32:43.830Z,70.86
2022-12-31T08:36:00.432Z,69.42
2022-12-31T08:39:13.832Z,68.37
2022-12-31T08:42:25.628Z,68.97
2022-12-31T08:45:36.415Z,67.82
2022-12-31T08:48:41.657Z,65.56
2022-12-31T08:51:44.756Z,66.26
2022-12-31T08:54:48.041Z,67.06
2022-12-31T08:58:05.048Z,67.83
2022-12-31T09:01:11.144Z,67.83
2022-12-31T09:04:24.299Z,68.02
2022-12-31T09:07:35.687Z,69.20
2022-12-31T09:10:46.299Z,70.27
2022-12-31T09:14:13.064Z,69.82
2022-12-31T09:17:39.164Z,69.71
2022-12-31T09:20:44.701Z,69.88
2022-12-31T09:23:48.082Z,69.13
2022-12-31T09:27:03.639Z,69.77
2022-12-31T09:30:08.895Z,69.47
2022-12-31T09:33:23.121Z,68.64
2022-12-31T09:36:32.010Z,67.46
2022-12-31T09:39:40.631Z,65.35
2022-12-31T09:43:00.117Z,64.24
2022-12-31T09:46:20.319Z,63.86
2022-12-31T09:50:00.184Z,63.31
2022-12-31T09:53:26.606Z,61.22
2022-12-31T09:56:32.646Z,59.43
2022-12-31T09:59:44.046Z,58.78
2022-12-31T10:03:05.111Z,59.64
2022-12-31T10:06:22.088Z,60.38
2022-12-31T10:09:40.994Z,60.40
2022-12-31T10:13:07.416Z,60.91
2022-12-31T10:16:54.702Z,59.98
2022-12-31T10:20:16.879Z,61.26
2022-12-31T10:23:36.585Z,62.15
2022-12-31T10:27:06.031Z,61.42
2022-12-31T10:30:16.234Z,58.99
2022-12-31T10:33:34.070Z,58.98
2022-12-31T10:36:52.858Z,58.43
2022-12-31T10:40:06.708Z,57.64
2022-12-31T10:43:34.141Z,58.21
2022-12-31T10:46:58.554Z,59.04
2022-12-31T10:50:42.841Z,60.58
2022-12-31T10:54:30.203Z,61.52
2022-12-31T10:57:52.637Z,62.50
2022-12-31T11:01:06.608Z,60.58
2022-12-31T11:04:54.043Z,60.21
2022-12-31T11:08:10.748Z,59.98
2022-12-31T11:11:28.050Z,60.69
2022-12-31T11:14:57.832Z,61.48
2022-12-31T11:18:09.074Z,62.33
2022-12-31T11:21:41.832Z,62.04
2022-12-31T11:25:06.298Z,62.75
2022-12-31T11:28:35.029Z,64.00
2022-12-31T11:31:50.905Z,65.24
2022-12-31T11:35:15.945Z,65.75
2022-12-31T11:38:25.086Z,66.17
2022-12-31T11:41:35.423Z,65.40
2022-12-31T11:44:46.724Z,65.97
2022-12-31T11:48:29.660Z,64.94
2022-12-31T11:51:50.201Z,65.15
2022-12-31T11:55:03.457Z,64.58
2022-12-31T11:58:14.071Z,64.16
2022-12-31T12:01:22.113Z,64.73
2022-12-31T12:04:26.567Z,64.76
2022-12-31T12:07:31.731Z,65.64
2022-12-31T12:10:41.902Z,65.73
2022-12-31T12:13:44.852Z,65.96
2022-12-31T12:16:52.832Z,65.94
2022-12-31T12:19:57.536Z,65.67
2022-12-31T12:23:01.997Z,65.76
2022-12-31T12:26:05.101Z,65.01
2022-12-31T12:29:12.208Z,65.08
2022-12-31T12:32:16.677Z,66.14
2022-12-31T12:35:26.110Z,66.11
2022-12-31T12:38:29.464Z,66.45
2022-12-31T12:41:33.304Z,66.62
2022-12-31T12:44:36.445Z,67.45
2022-12-31T12:47:42.567Z,66.63
2022-12-31T12:50:49.007Z,67.61
2022-12-31T12:53:59.354Z,66.83
2022-12-31T12:57:10.426Z,67.02
2022-12-31T13:00:19.464Z,67.51
2022-12-31T13:07:45.240Z,67.42
2022-12-31T13:11:02.550Z,67.91
2022-12-31T13:14:17.165Z,67.98
2022-12-31T13:17:38.868Z,67.67
2022-12-31T13:20:47.501Z,67.56
2022-12-31T13:23:56.697Z,67.38
2022-12-31T13:27:07.217Z,67.50
2022-12-31T13:30:15.656Z,66.90
2022-12-31T13:33:20.774Z,66.83
2022-12-31T13:36:27.338Z,66.90
2022-12-31T13:39:36.831Z,66.62
2022-12-31T13:42:45.886Z,65.95
2022-12-31T13:45:59.542Z,65.85
2022-12-31T13:49:05.477Z,66.37
2022-12-31T13:52:19.570Z,66.79
2022-12-31T13:55:26.630Z,65.90
2022-12-31T13:58:35.910Z,66.10
2022-12-31T14:01:43.211Z,65.72
2022-12-31T14:04:52.244Z,66.53
2022-12-31T14:07:57.713Z,66.99
2022-12-31T14:11:13.657Z,67.76
2022-12-31T14:14:30.088Z,68.21
2022-12-31T14:17:42.408Z,69.35
2022-12-31T14:20:48.114Z,69.75
2022-12-31T14:23:58.799Z,69.10
2022-12-31T14:27:05.663Z,69.87
2022-12-31T14:30:16.630Z,70.64
2022-12-31T14:33:46.587Z,71.37
2022-12-31T14:36:59.885Z,72.56
2022-12-31T14:40:16.008Z,73.01
2022-12-31T14:43:30.621Z,73.69
2022-12-31T14:46:45.112Z,74.02
2022-12-31T14:50:00.885Z,74.49
2022-12-31T14:53:09.233Z,75.31
2022-12-31T14:56:29.119Z,76.10
2022-12-31T14:59:40.478Z,76.20
2022-12-31T15:02:49.765Z,76.64
2022-12-31T15:05:59.128Z,76.55
2022-12-31T15:09:12.418Z,76.04
2022-12-31T15:12:30.575Z,75.78
2022-12-31T15:15:57.957Z,76.15
2022-12-31T15:19:39.986Z,75.68
2022-12-31T15:22:45.003Z,75.38
2022-12-31T15:25:50.488Z,75.29
2022-12-31T15:28:58.634Z,76.06
2022-12-31T15:32:05.009Z,76.14
2022-12-31T15:35:26.198Z,75.93
2022-12-31T15:38:35.122Z,76.06
2022-12-31T15:41:46.025Z,76.22
2022-12-31T15:45:00.359Z,76.94
2022-12-31T15:48:13.783Z,76.55
2022-12-31T15:51:19.699Z,76.21
2022-12-31T15:54:36.127Z,76.05
2022-12-31T15:57:41.961Z,75.71
2022-12-31T16:01:01.751Z,75.60
2022-12-31T16:04:12.705Z,75.63
2022-12-31T16:07:16.273Z,75.54
2022-12-31T16:10:23.813Z,75.95
2022-12-31T16:13:29.149Z,76.24
2022-12-31T16:16:33.456Z,76.63
2022-12-31T16:19:43.666Z,76.62
2022-12-31T16:22:51.988Z,77.06
2022-12-31T16:26:00.834Z,77.74
2022-12-31T16:29:04.538Z,78.25
2022-12-31T16:32:11.995Z,78.75
2022-12-31T16:35:24.655Z,78.89
2022-12-31T16:38:32.745Z,78.86
2022-12-31T16:41:42.352Z,78.74
2022-12-31T16:44:45.515Z,78.67
2022-12-31T16:47:48.701Z,77.91
2022-12-31T16:50:55.834Z,77.69
2022-12-31T16:53:59.319Z,77.55
2022-12-31T16:57:02.608Z,77.03
2022-12-31T17:00:07.031Z,76.83
2022-12-31T17:03:17.799Z,77.59
2022-12-31T17:06:22.046Z,77.48
2022-12-31T17:09:34.158Z,77.32
2022-12-31T17:13:17.354Z,77.27
2022-12-31T17:16:06.880Z,77.56
2022-12-31T17:19:26.586Z,77.90
2022-12-31T17:22:36.975Z,78.57
2022-12-31T17:25:40.060Z,79.54
2022-12-31T17:28:46.155Z,79.90
2022-12-31T17:31:59.495Z,80.96
2022-12-31T17:35:02.607Z,81.31
2022-12-31T17:38:32.981Z,81.42
2022-12-31T17:41:35.713Z,81.57
2022-12-31T17:44:41.012Z,81.66
2022-12-31T17:47:48.209Z,81.54
2022-12-31T17:50:52.867Z,82.23
2022-12-31T17:53:59.822Z,82.28
2022-12-31T17:57:02.552Z,82.35
2022-12-31T18:00:06.130Z,82.09
2022-12-31T18:03:15.199Z,82.69
2022-12-31T18:06:21.331Z,83.39
2022-12-31T18:09:25.411Z,83.34
2022-12-31T18:12:28.340Z,83.41
2022-12-31T18:15:31.621Z,83.30
2022-12-31T18:18:37.483Z,83.91
2022-12-31T18:21:40.707Z,83.60
2022-12-31T18:24:44.926Z,83.51
2022-12-31T18:27:48.097Z,83.45
2022-12-31T18:30:51.723Z,83.64
2022-12-31T18:33:56.810Z,83.63
2022-12-31T18:36:59.755Z,83.83
2022-12-31T18:40:04.295Z,83.78
2022-12-31T18:43:10.102Z,83.82
2022-12-31T18:46:14.354Z,84.61
2022-12-31T18:49:17.200Z,84.72
2022-12-31T18:52:21.927Z,84.90
2022-12-31T18:55:32.071Z,84.74
2022-12-31T18:58:34.725Z,84.79
2022-12-31T19:01:39.809Z,84.83
2022-12-31T19:04:42.692Z,85.06
2022-12-31T19:07:45.351Z,85.17
2022-12-31T19:10:50.817Z,85.28
2022-12-31T19:13:53.673Z,85.44
2022-12-31T19:20:04.376Z,85.49
2022-12-31T19:23:14.585Z,85.54
2022-12-31T19:26:21.048Z,85.83
2022-12-31T19:29:25.493Z,85.96
2022-12-31T19:32:28.788Z,85.99
2022-12-31T19:35:31.450Z,86.03
2022-12-31T19:38:34.448Z,86.18
2022-12-31T19:41:38.477Z,86.18
2022-12-31T19:44:41.258Z,85.77
2022-12-31T19:47:44.794Z,85.77
2022-12-31T19:50:49.007Z,85.65
2022-12-31T19:53:51.674Z,85.67
2022-12-31T19:56:55.797Z,85.01
2022-12-31T19:59:58.407Z,84.68
2022-12-31T20:03:01.619Z,84.50
2022-12-31T20:06:07.132Z,84.32
2022-12-31T20:09:11.562Z,84.09
2022-12-31T20:12:15.608Z,83.82
2022-12-31T20:15:18.503Z,84.30
2022-12-31T20:18:22.982Z,84.18
2022-12-31T20:21:27.394Z,84.06
2022-12-31T20:24:30.118Z,83.91
2022-12-31T20:27:34.181Z,83.37
2022-12-31T20:30:38.504Z,83.40
2022-12-31T20:33:42.145Z,82.90
2022-12-31T20:36:44.898Z,82.27
2022-12-31T20:39:47.871Z,82.38
2022-12-31T20:42:52.451Z,82.49
2022-12-31T20:45:55.215Z,82.41
2022-12-31T20:49:00.041Z,82.29
2022-12-31T20:52:05.490Z,82.29
2022-12-31T20:55:09.746Z,82.56
2022-12-31T20:58:13.812Z,82.79
2022-12-31T21:01:17.847Z,82.91
2022-12-31T21:04:20.743Z,83.17
2022-12-31T21:07:23.703Z,83.10
2022-12-31T21:10:26.369Z,83.31
2022-12-31T21:13:31.161Z,83.05
2022-12-31T21:16:34.057Z,82.87
2022-12-31T21:19:36.707Z,82.75
2022-12-31T21:22:39.396Z,82.43
2022-12-31T21:25:42.235Z,82.62
2022-12-31T21:28:46.314Z,82.59
2022-12-31T21:31:49.205Z,83.13
2022-12-31T21:35:23.086Z,83.16
2022-12-31T21:38:14.591Z,83.23
2022-12-31T21:41:35.458Z,83.05
2022-12-31T21:44:40.033Z,83.22
2022-12-31T21:48:01.224Z,83.57
2022-12-31T21:51:09.590Z,83.13
2022-12-31T21:54:32.377Z,83.07
2022-12-31T21:57:59.100Z,83.37
2022-12-31T22:01:18.723Z,83.37
2022-12-31T22:04:59.734Z,83.16
2022-12-31T22:07:44.619Z,83.48
2022-12-31T22:10:52.413Z,83.32
2022-12-31T22:13:56.058Z,83.33
2022-12-31T22:17:00.065Z,83.47
2022-12-31T22:20:26.540Z,83.30
2022-12-31T22:23:25.348Z,83.35
2022-12-31T22:26:29.345Z,83.41
2022-12-31T22:29:32.284Z,83.61
2022-12-31T22:32:37.050Z,83.77
2022-12-31T22:35:39.687Z,83.83
2022-12-31T22:38:43.207Z,83.89
2022-12-31T22:41:46.501Z,84.19
2022-12-31T22:44:49.228Z,83.57
2022-12-31T22:47:53.424Z,83.76
2022-12-31T22:50:57.153Z,83.78
2022-12-31T22:53:59.850Z,83.26
2022-12-31T22:57:02.524Z,83.08
2022-12-31T23:00:11.102Z,83.13
2022-12-31T23:03:15.517Z,83.58
2022-12-31T23:06:19.464Z,83.88
2022-12-31T23:09:40.836Z,83.61
2022-12-31T23:12:43.598Z,83.52
2022-12-31T23:16:04.530Z,83.62
2022-12-31T23:19:27.755Z,83.93
2022-12-31T23:22:48.724Z,84.76
2022-12-31T23:25:52.121Z,84.70
2022-12-31T23:28:54.775Z,84.77
2022-12-31T23:31:57.422Z,84.15
2022-12-31T23:35:09.243Z,84.10
2022-12-31T23:38:13.355Z,84.24
2022-12-31T23:41:19.424Z,84.45
2022-12-31T23:44:22.093Z,84.15
2022-12-31T23:47:24.903Z,83.95
2022-12-31T23:50:29.118Z,83.94
2022-12-31T23:53:31.866Z,84.28
2022-12-31T23:56:34.617Z,83.97
2022-12-31T23:59:37.348Z,84.14
